Brooklyn, Illinois
Current Conditions -  °F | °C
As of 7:19 AM on Friday 31 Oct 2014 (Local Time) from KCPS Reporting Station
Overcast Overcast  
Wind Chill: 44°   Ceiling: 2500
Heat Index: 49°   Visibility: 10mi
Dew Point: 41°   Wind: 14mph
Humidity: 74%   Direction: 340°NNW
Pressure: 30.16"   Gusts: NA
Location:  38.6276°N, 90.1494°W
Report Text: KCPS 311219Z 34012KT 10SM BKN025 OVC042 09/05 A3016 RMK AO2 T00940050
Loading
Personal Weather Stations






























Interactive Weather Map
Tropical Storm Tracking
New forecast layout! Learn more

10-Day Weather Forecast

Advertisements
Track Severe Weather on mobile